Webcam

2017/03/27 06:20 EBBR 270620Z 12004KT CAVOK 06/02 Q1023 NOSIG

Webcam image

--- Refresh now ---